sensor_id;sensor_type;location;lat;lon;timestamp;P1;durP1;ratioP1;P2;durP2;ratioP2
16866;SDS011;8550;52.596;13.320;2023-10-19T00:04:33;7.17;;;3.67;;
16866;SDS011;8550;52.596;13.320;2023-10-19T00:09:36;7.47;;;3.27;;
16866;SDS011;8550;52.596;13.320;2023-10-19T00:14:39;6.60;;;3.03;;
16866;SDS011;8550;52.596;13.320;2023-10-19T00:19:43;6.03;;;3.30;;
16866;SDS011;8550;52.596;13.320;2023-10-19T00:25:05;9.80;;;3.77;;
16866;SDS011;8550;52.596;13.320;2023-10-19T00:30:13;9.35;;;3.63;;
16866;SDS011;8550;52.596;13.320;2023-10-19T00:35:20;8.55;;;3.65;;
16866;SDS011;8550;52.596;13.320;2023-10-19T00:40:34;9.13;;;3.87;;
16866;SDS011;8550;52.596;13.320;2023-10-19T00:45:36;5.85;;;3.22;;
16866;SDS011;8550;52.596;13.320;2023-10-19T00:50:41;7.53;;;4.05;;
16866;SDS011;8550;52.596;13.320;2023-10-19T00:55:47;9.43;;;3.20;;
16866;SDS011;8550;52.596;13.320;2023-10-19T01:00:49;13.80;;;3.13;;
16866;SDS011;8550;52.596;13.320;2023-10-19T01:05:56;8.68;;;4.38;;
16866;SDS011;8550;52.596;13.320;2023-10-19T01:10:58;9.07;;;3.45;;
16866;SDS011;8550;52.596;13.320;2023-10-19T01:16:00;9.47;;;2.87;;
16866;SDS011;8550;52.596;13.320;2023-10-19T01:21:06;8.05;;;3.72;;
16866;SDS011;8550;52.596;13.320;2023-10-19T01:26:09;9.60;;;3.95;;
16866;SDS011;8550;52.596;13.320;2023-10-19T01:31:13;8.67;;;3.43;;
16866;SDS011;8550;52.596;13.320;2023-10-19T01:36:17;6.72;;;2.78;;
16866;SDS011;8550;52.596;13.320;2023-10-19T01:41:29;12.98;;;3.97;;
16866;SDS011;8550;52.596;13.320;2023-10-19T01:46:32;9.57;;;3.17;;
16866;SDS011;8550;52.596;13.320;2023-10-19T01:51:35;9.63;;;3.97;;
16866;SDS011;8550;52.596;13.320;2023-10-19T01:56:40;6.75;;;3.38;;
16866;SDS011;8550;52.596;13.320;2023-10-19T02:01:43;8.25;;;3.85;;
16866;SDS011;8550;52.596;13.320;2023-10-19T02:06:46;20.43;;;3.60;;
16866;SDS011;8550;52.596;13.320;2023-10-19T02:11:50;6.28;;;3.00;;
16866;SDS011;8550;52.596;13.320;2023-10-19T02:16:56;8.88;;;4.03;;
16866;SDS011;8550;52.596;13.320;2023-10-19T02:22:00;7.93;;;4.07;;
16866;SDS011;8550;52.596;13.320;2023-10-19T02:27:05;6.93;;;3.58;;
16866;SDS011;8550;52.596;13.320;2023-10-19T02:32:07;9.30;;;3.55;;
16866;SDS011;8550;52.596;13.320;2023-10-19T02:37:10;10.10;;;3.53;;
16866;SDS011;8550;52.596;13.320;2023-10-19T02:42:13;7.87;;;4.03;;
16866;SDS011;8550;52.596;13.320;2023-10-19T02:47:15;10.27;;;5.13;;
16866;SDS011;8550;52.596;13.320;2023-10-19T02:52:17;8.35;;;3.92;;
16866;SDS011;8550;52.596;13.320;2023-10-19T02:57:20;8.47;;;3.53;;
16866;SDS011;8550;52.596;13.320;2023-10-19T03:02:22;12.32;;;4.78;;
16866;SDS011;8550;52.596;13.320;2023-10-19T03:07:26;9.90;;;4.72;;
16866;SDS011;8550;52.596;13.320;2023-10-19T03:12:29;9.27;;;4.13;;
16866;SDS011;8550;52.596;13.320;2023-10-19T03:17:31;8.20;;;3.95;;
16866;SDS011;8550;52.596;13.320;2023-10-19T03:22:33;12.27;;;3.78;;
16866;SDS011;8550;52.596;13.320;2023-10-19T03:27:36;9.37;;;3.97;;
16866;SDS011;8550;52.596;13.320;2023-10-19T03:32:38;12.40;;;5.20;;
16866;SDS011;8550;52.596;13.320;2023-10-19T03:37:41;8.40;;;4.35;;
16866;SDS011;8550;52.596;13.320;2023-10-19T03:42:44;6.72;;;3.28;;
16866;SDS011;8550;52.596;13.320;2023-10-19T03:47:47;13.87;;;4.13;;
16866;SDS011;8550;52.596;13.320;2023-10-19T03:52:50;8.95;;;3.85;;
16866;SDS011;8550;52.596;13.320;2023-10-19T03:57:55;9.90;;;4.00;;
16866;SDS011;8550;52.596;13.320;2023-10-19T04:02:57;11.00;;;4.37;;
16866;SDS011;8550;52.596;13.320;2023-10-19T04:07:58;9.88;;;3.80;;
16866;SDS011;8550;52.596;13.320;2023-10-19T04:13:07;9.60;;;4.53;;
16866;SDS011;8550;52.596;13.320;2023-10-19T04:18:10;9.73;;;4.87;;
16866;SDS011;8550;52.596;13.320;2023-10-19T04:23:12;7.87;;;4.13;;
16866;SDS011;8550;52.596;13.320;2023-10-19T04:28:16;9.57;;;5.03;;
16866;SDS011;8550;52.596;13.320;2023-10-19T04:33:22;11.05;;;4.65;;
16866;SDS011;8550;52.596;13.320;2023-10-19T04:38:27;12.37;;;4.63;;
16866;SDS011;8550;52.596;13.320;2023-10-19T04:43:34;7.88;;;4.35;;
16866;SDS011;8550;52.596;13.320;2023-10-19T04:48:37;10.68;;;5.35;;
16866;SDS011;8550;52.596;13.320;2023-10-19T04:53:42;12.47;;;5.13;;
16866;SDS011;8550;52.596;13.320;2023-10-19T04:58:45;9.82;;;4.57;;
16866;SDS011;8550;52.596;13.320;2023-10-19T05:03:48;10.63;;;4.35;;
16866;SDS011;8550;52.596;13.320;2023-10-19T05:08:49;12.60;;;5.57;;
16866;SDS011;8550;52.596;13.320;2023-10-19T05:13:53;10.33;;;5.90;;
16866;SDS011;8550;52.596;13.320;2023-10-19T05:18:55;11.05;;;4.88;;
16866;SDS011;8550;52.596;13.320;2023-10-19T05:23:57;9.75;;;5.22;;
16866;SDS011;8550;52.596;13.320;2023-10-19T05:29:02;11.33;;;5.03;;
16866;SDS011;8550;52.596;13.320;2023-10-19T05:34:04;8.30;;;4.38;;
16866;SDS011;8550;52.596;13.320;2023-10-19T05:39:08;13.55;;;5.63;;
16866;SDS011;8550;52.596;13.320;2023-10-19T05:44:11;10.90;;;5.50;;
16866;SDS011;8550;52.596;13.320;2023-10-19T05:49:13;12.43;;;6.20;;
16866;SDS011;8550;52.596;13.320;2023-10-19T05:54:17;12.25;;;6.18;;
16866;SDS011;8550;52.596;13.320;2023-10-19T05:59:20;10.83;;;5.00;;
16866;SDS011;8550;52.596;13.320;2023-10-19T06:04:23;12.80;;;4.90;;
16866;SDS011;8550;52.596;13.320;2023-10-19T06:09:25;8.55;;;4.65;;
16866;SDS011;8550;52.596;13.320;2023-10-19T06:14:30;10.95;;;5.38;;
16866;SDS011;8550;52.596;13.320;2023-10-19T06:19:32;10.50;;;4.50;;
16866;SDS011;8550;52.596;13.320;2023-10-19T06:24:34;11.65;;;5.50;;
16866;SDS011;8550;52.596;13.320;2023-10-19T06:29:38;12.40;;;5.10;;
16866;SDS011;8550;52.596;13.320;2023-10-19T06:34:40;14.53;;;5.50;;
16866;SDS011;8550;52.596;13.320;2023-10-19T06:39:42;15.27;;;5.32;;
16866;SDS011;8550;52.596;13.320;2023-10-19T06:44:46;15.85;;;7.10;;
16866;SDS011;8550;52.596;13.320;2023-10-19T06:49:50;12.57;;;5.37;;
16866;SDS011;8550;52.596;13.320;2023-10-19T06:54:52;13.30;;;5.73;;
16866;SDS011;8550;52.596;13.320;2023-10-19T06:59:55;9.70;;;5.13;;
16866;SDS011;8550;52.596;13.320;2023-10-19T07:04:57;12.73;;;6.30;;
16866;SDS011;8550;52.596;13.320;2023-10-19T07:09:59;12.57;;;6.30;;
16866;SDS011;8550;52.596;13.320;2023-10-19T07:15:05;8.40;;;4.88;;
16866;SDS011;8550;52.596;13.320;2023-10-19T07:20:09;12.00;;;5.32;;
16866;SDS011;8550;52.596;13.320;2023-10-19T07:25:22;11.10;;;6.03;;
16866;SDS011;8550;52.596;13.320;2023-10-19T07:30:27;13.35;;;5.70;;
16866;SDS011;8550;52.596;13.320;2023-10-19T07:35:33;10.85;;;5.68;;
16866;SDS011;8550;52.596;13.320;2023-10-19T07:40:37;6.20;;;3.47;;
16866;SDS011;8550;52.596;13.320;2023-10-19T07:45:41;12.67;;;4.70;;
16866;SDS011;8550;52.596;13.320;2023-10-19T07:50:43;13.68;;;5.80;;
16866;SDS011;8550;52.596;13.320;2023-10-19T07:55:45;10.27;;;5.88;;
16866;SDS011;8550;52.596;13.320;2023-10-19T08:00:48;9.57;;;4.83;;
16866;SDS011;8550;52.596;13.320;2023-10-19T08:05:50;9.98;;;5.22;;
16866;SDS011;8550;52.596;13.320;2023-10-19T08:10:52;14.27;;;7.00;;
16866;SDS011;8550;52.596;13.320;2023-10-19T08:15:55;13.27;;;6.13;;
16866;SDS011;8550;52.596;13.320;2023-10-19T08:20:57;10.65;;;5.35;;
16866;SDS011;8550;52.596;13.320;2023-10-19T08:25:59;10.68;;;5.10;;
16866;SDS011;8550;52.596;13.320;2023-10-19T08:31:03;8.77;;;5.03;;
16866;SDS011;8550;52.596;13.320;2023-10-19T08:36:05;10.60;;;6.03;;
16866;SDS011;8550;52.596;13.320;2023-10-19T08:41:07;9.07;;;4.07;;
16866;SDS011;8550;52.596;13.320;2023-10-19T08:46:11;9.90;;;5.22;;
16866;SDS011;8550;52.596;13.320;2023-10-19T08:51:14;11.90;;;5.17;;
16866;SDS011;8550;52.596;13.320;2023-10-19T08:56:18;11.20;;;4.80;;
16866;SDS011;8550;52.596;13.320;2023-10-19T09:01:22;10.88;;;5.50;;
16866;SDS011;8550;52.596;13.320;2023-10-19T09:06:28;10.97;;;5.73;;
16866;SDS011;8550;52.596;13.320;2023-10-19T09:11:30;10.13;;;4.50;;
16866;SDS011;8550;52.596;13.320;2023-10-19T09:16:33;11.93;;;5.88;;
16866;SDS011;8550;52.596;13.320;2023-10-19T09:21:38;12.50;;;4.97;;
16866;SDS011;8550;52.596;13.320;2023-10-19T09:26:40;11.13;;;5.90;;
16866;SDS011;8550;52.596;13.320;2023-10-19T09:31:44;13.25;;;6.10;;
16866;SDS011;8550;52.596;13.320;2023-10-19T09:36:48;11.63;;;5.25;;
16866;SDS011;8550;52.596;13.320;2023-10-19T09:41:50;13.73;;;5.37;;
16866;SDS011;8550;52.596;13.320;2023-10-19T09:46:55;12.02;;;5.43;;
16866;SDS011;8550;52.596;13.320;2023-10-19T09:52:00;13.48;;;4.80;;
16866;SDS011;8550;52.596;13.320;2023-10-19T09:57:13;11.63;;;5.47;;
16866;SDS011;8550;52.596;13.320;2023-10-19T10:02:21;10.90;;;4.95;;
16866;SDS011;8550;52.596;13.320;2023-10-19T10:07:23;10.48;;;5.63;;
16866;SDS011;8550;52.596;13.320;2023-10-19T10:12:26;10.80;;;6.23;;
16866;SDS011;8550;52.596;13.320;2023-10-19T10:17:30;11.43;;;6.20;;
16866;SDS011;8550;52.596;13.320;2023-10-19T10:22:37;14.43;;;5.15;;
16866;SDS011;8550;52.596;13.320;2023-10-19T10:27:41;15.40;;;6.25;;
16866;SDS011;8550;52.596;13.320;2023-10-19T10:32:53;11.40;;;4.93;;
16866;SDS011;8550;52.596;13.320;2023-10-19T10:37:56;13.32;;;5.45;;
16866;SDS011;8550;52.596;13.320;2023-10-19T10:43:05;12.77;;;5.90;;
16866;SDS011;8550;52.596;13.320;2023-10-19T10:48:12;10.60;;;6.27;;
16866;SDS011;8550;52.596;13.320;2023-10-19T10:53:14;11.68;;;5.88;;
16866;SDS011;8550;52.596;13.320;2023-10-19T10:58:16;12.05;;;6.45;;
16866;SDS011;8550;52.596;13.320;2023-10-19T11:03:20;12.40;;;6.03;;
16866;SDS011;8550;52.596;13.320;2023-10-19T11:08:24;11.37;;;6.70;;
16866;SDS011;8550;52.596;13.320;2023-10-19T11:13:26;14.48;;;7.72;;
16866;SDS011;8550;52.596;13.320;2023-10-19T11:18:30;12.07;;;5.93;;
16866;SDS011;8550;52.596;13.320;2023-10-19T11:23:40;14.03;;;6.53;;
16866;SDS011;8550;52.596;13.320;2023-10-19T11:28:42;14.88;;;6.35;;
16866;SDS011;8550;52.596;13.320;2023-10-19T11:33:49;11.63;;;4.75;;
16866;SDS011;8550;52.596;13.320;2023-10-19T11:38:52;9.03;;;5.37;;
16866;SDS011;8550;52.596;13.320;2023-10-19T11:43:54;15.00;;;6.85;;
16866;SDS011;8550;52.596;13.320;2023-10-19T11:48:58;14.25;;;5.72;;
16866;SDS011;8550;52.596;13.320;2023-10-19T11:54:01;13.37;;;6.83;;
16866;SDS011;8550;52.596;13.320;2023-10-19T11:59:03;12.73;;;7.00;;
16866;SDS011;8550;52.596;13.320;2023-10-19T12:04:07;17.67;;;6.85;;
16866;SDS011;8550;52.596;13.320;2023-10-19T12:09:09;12.52;;;6.20;;
16866;SDS011;8550;52.596;13.320;2023-10-19T12:14:16;14.33;;;6.73;;
16866;SDS011;8550;52.596;13.320;2023-10-19T12:19:19;13.10;;;6.60;;
16866;SDS011;8550;52.596;13.320;2023-10-19T12:24:22;17.50;;;6.60;;
16866;SDS011;8550;52.596;13.320;2023-10-19T12:29:28;12.57;;;6.00;;
16866;SDS011;8550;52.596;13.320;2023-10-19T12:34:33;16.58;;;7.32;;
16866;SDS011;8550;52.596;13.320;2023-10-19T12:39:35;14.00;;;6.78;;
16866;SDS011;8550;52.596;13.320;2023-10-19T12:44:43;17.40;;;7.27;;
16866;SDS011;8550;52.596;13.320;2023-10-19T12:49:47;17.07;;;7.10;;
16866;SDS011;8550;52.596;13.320;2023-10-19T12:54:51;10.68;;;6.93;;
16866;SDS011;8550;52.596;13.320;2023-10-19T13:00:00;17.13;;;8.95;;
16866;SDS011;8550;52.596;13.320;2023-10-19T13:05:24;16.33;;;8.30;;
16866;SDS011;8550;52.596;13.320;2023-10-19T13:10:27;12.30;;;7.32;;
16866;SDS011;8550;52.596;13.320;2023-10-19T13:15:32;14.82;;;7.47;;
16866;SDS011;8550;52.596;13.320;2023-10-19T13:20:37;11.03;;;5.70;;
16866;SDS011;8550;52.596;13.320;2023-10-19T13:25:44;12.57;;;8.15;;
16866;SDS011;8550;52.596;13.320;2023-10-19T13:30:53;19.90;;;9.55;;
16866;SDS011;8550;52.596;13.320;2023-10-19T13:41:02;12.67;;;6.73;;
16866;SDS011;8550;52.596;13.320;2023-10-19T13:46:07;13.15;;;7.28;;
16866;SDS011;8550;52.596;13.320;2023-10-19T13:51:11;12.48;;;7.43;;
16866;SDS011;8550;52.596;13.320;2023-10-19T13:56:19;14.20;;;6.63;;
16866;SDS011;8550;52.596;13.320;2023-10-19T14:01:21;17.30;;;7.43;;
16866;SDS011;8550;52.596;13.320;2023-10-19T14:06:25;14.35;;;7.15;;
16866;SDS011;8550;52.596;13.320;2023-10-19T14:11:28;15.77;;;8.07;;
16866;SDS011;8550;52.596;13.320;2023-10-19T14:16:30;13.82;;;8.38;;
16866;SDS011;8550;52.596;13.320;2023-10-19T14:21:33;18.77;;;8.57;;
16866;SDS011;8550;52.596;13.320;2023-10-19T14:26:37;11.40;;;6.77;;
16866;SDS011;8550;52.596;13.320;2023-10-19T14:31:42;12.63;;;7.10;;
16866;SDS011;8550;52.596;13.320;2023-10-19T14:36:46;23.60;;;7.55;;
16866;SDS011;8550;52.596;13.320;2023-10-19T14:41:47;14.18;;;7.55;;
16866;SDS011;8550;52.596;13.320;2023-10-19T14:46:50;14.93;;;7.23;;
16866;SDS011;8550;52.596;13.320;2023-10-19T14:51:53;12.88;;;7.30;;
16866;SDS011;8550;52.596;13.320;2023-10-19T14:56:56;14.98;;;7.03;;
16866;SDS011;8550;52.596;13.320;2023-10-19T15:01:58;13.50;;;6.60;;
16866;SDS011;8550;52.596;13.320;2023-10-19T15:07:01;15.68;;;6.20;;
16866;SDS011;8550;52.596;13.320;2023-10-19T15:12:04;12.13;;;6.82;;
16866;SDS011;8550;52.596;13.320;2023-10-19T15:17:07;11.50;;;6.50;;
16866;SDS011;8550;52.596;13.320;2023-10-19T15:22:11;14.40;;;7.30;;
16866;SDS011;8550;52.596;13.320;2023-10-19T15:27:13;14.43;;;8.32;;
16866;SDS011;8550;52.596;13.320;2023-10-19T15:32:15;12.52;;;6.57;;
16866;SDS011;8550;52.596;13.320;2023-10-19T15:37:18;15.57;;;6.17;;
16866;SDS011;8550;52.596;13.320;2023-10-19T15:42:20;15.85;;;6.20;;
16866;SDS011;8550;52.596;13.320;2023-10-19T15:47:22;11.20;;;6.93;;
16866;SDS011;8550;52.596;13.320;2023-10-19T15:52:27;16.63;;;7.40;;
16866;SDS011;8550;52.596;13.320;2023-10-19T15:57:31;16.70;;;7.40;;
16866;SDS011;8550;52.596;13.320;2023-10-19T16:02:33;13.35;;;7.25;;
16866;SDS011;8550;52.596;13.320;2023-10-19T16:07:37;18.90;;;8.03;;
16866;SDS011;8550;52.596;13.320;2023-10-19T16:12:39;12.13;;;6.93;;
16866;SDS011;8550;52.596;13.320;2023-10-19T16:17:41;15.40;;;7.88;;
16866;SDS011;8550;52.596;13.320;2023-10-19T16:22:47;11.85;;;6.95;;
16866;SDS011;8550;52.596;13.320;2023-10-19T16:27:49;13.47;;;7.73;;
16866;SDS011;8550;52.596;13.320;2023-10-19T16:32:51;16.73;;;8.75;;
16866;SDS011;8550;52.596;13.320;2023-10-19T16:38:24;13.95;;;8.05;;
16866;SDS011;8550;52.596;13.320;2023-10-19T16:43:36;17.63;;;7.07;;
16866;SDS011;8550;52.596;13.320;2023-10-19T16:48:42;14.55;;;8.35;;
16866;SDS011;8550;52.596;13.320;2023-10-19T16:53:45;15.45;;;7.18;;
16866;SDS011;8550;52.596;13.320;2023-10-19T16:58:48;16.20;;;8.07;;
16866;SDS011;8550;52.596;13.320;2023-10-19T17:03:50;17.90;;;8.63;;
16866;SDS011;8550;52.596;13.320;2023-10-19T17:08:53;18.30;;;8.95;;
16866;SDS011;8550;52.596;13.320;2023-10-19T17:13:55;14.98;;;7.35;;
16866;SDS011;8550;52.596;13.320;2023-10-19T17:18:59;11.37;;;5.93;;
16866;SDS011;8550;52.596;13.320;2023-10-19T17:24:02;12.27;;;6.20;;
16866;SDS011;8550;52.596;13.320;2023-10-19T17:29:05;19.20;;;8.45;;
16866;SDS011;8550;52.596;13.320;2023-10-19T17:34:07;10.67;;;6.43;;
16866;SDS011;8550;52.596;13.320;2023-10-19T17:39:11;10.48;;;5.45;;
16866;SDS011;8550;52.596;13.320;2023-10-19T17:44:13;15.07;;;8.23;;
16866;SDS011;8550;52.596;13.320;2023-10-19T17:49:15;12.90;;;6.83;;
16866;SDS011;8550;52.596;13.320;2023-10-19T17:54:19;12.67;;;5.57;;
16866;SDS011;8550;52.596;13.320;2023-10-19T17:59:21;10.38;;;6.97;;
16866;SDS011;8550;52.596;13.320;2023-10-19T18:04:23;14.65;;;6.22;;
16866;SDS011;8550;52.596;13.320;2023-10-19T18:09:27;12.23;;;5.57;;
16866;SDS011;8550;52.596;13.320;2023-10-19T18:14:29;13.57;;;7.47;;
16866;SDS011;8550;52.596;13.320;2023-10-19T18:19:31;12.02;;;6.72;;
16866;SDS011;8550;52.596;13.320;2023-10-19T18:24:35;9.73;;;6.30;;
16866;SDS011;8550;52.596;13.320;2023-10-19T18:29:38;10.27;;;5.72;;
16866;SDS011;8550;52.596;13.320;2023-10-19T18:34:41;11.73;;;4.97;;
16866;SDS011;8550;52.596;13.320;2023-10-19T18:39:44;10.33;;;5.33;;
16866;SDS011;8550;52.596;13.320;2023-10-19T18:44:47;10.00;;;5.47;;
16866;SDS011;8550;52.596;13.320;2023-10-19T18:50:10;20.70;;;10.38;;
16866;SDS011;8550;52.596;13.320;2023-10-19T18:55:27;12.98;;;6.07;;
16866;SDS011;8550;52.596;13.320;2023-10-19T19:00:31;9.00;;;4.60;;
16866;SDS011;8550;52.596;13.320;2023-10-19T19:05:37;10.63;;;4.93;;
16866;SDS011;8550;52.596;13.320;2023-10-19T19:10:42;7.55;;;4.40;;
16866;SDS011;8550;52.596;13.320;2023-10-19T19:15:50;9.20;;;4.47;;
16866;SDS011;8550;52.596;13.320;2023-10-19T19:20:54;8.77;;;4.80;;
16866;SDS011;8550;52.596;13.320;2023-10-19T19:25:59;8.30;;;4.95;;
16866;SDS011;8550;52.596;13.320;2023-10-19T19:31:01;10.07;;;4.43;;
16866;SDS011;8550;52.596;13.320;2023-10-19T19:36:04;9.27;;;4.03;;
16866;SDS011;8550;52.596;13.320;2023-10-19T19:41:08;11.40;;;4.45;;
16866;SDS011;8550;52.596;13.320;2023-10-19T19:46:10;10.70;;;5.22;;
16866;SDS011;8550;52.596;13.320;2023-10-19T19:51:14;9.50;;;4.63;;
16866;SDS011;8550;52.596;13.320;2023-10-19T19:56:18;7.97;;;4.45;;
16866;SDS011;8550;52.596;13.320;2023-10-19T20:01:21;7.93;;;4.47;;
16866;SDS011;8550;52.596;13.320;2023-10-19T20:06:23;11.63;;;4.80;;
16866;SDS011;8550;52.596;13.320;2023-10-19T20:11:27;10.05;;;4.35;;
16866;SDS011;8550;52.596;13.320;2023-10-19T20:16:29;7.82;;;3.55;;
16866;SDS011;8550;52.596;13.320;2023-10-19T20:21:31;10.23;;;4.83;;
16866;SDS011;8550;52.596;13.320;2023-10-19T20:26:34;8.53;;;4.53;;
16866;SDS011;8550;52.596;13.320;2023-10-19T20:31:36;6.60;;;4.22;;
16866;SDS011;8550;52.596;13.320;2023-10-19T20:36:38;13.40;;;6.63;;
16866;SDS011;8550;52.596;13.320;2023-10-19T20:41:43;9.20;;;5.60;;
16866;SDS011;8550;52.596;13.320;2023-10-19T20:46:45;8.93;;;3.67;;
16866;SDS011;8550;52.596;13.320;2023-10-19T20:51:47;9.25;;;5.72;;
16866;SDS011;8550;52.596;13.320;2023-10-19T20:56:51;8.77;;;5.33;;
16866;SDS011;8550;52.596;13.320;2023-10-19T21:01:53;18.35;;;5.63;;
16866;SDS011;8550;52.596;13.320;2023-10-19T21:06:57;8.07;;;4.03;;
16866;SDS011;8550;52.596;13.320;2023-10-19T21:12:01;10.80;;;5.20;;
16866;SDS011;8550;52.596;13.320;2023-10-19T21:17:02;11.73;;;5.50;;
16866;SDS011;8550;52.596;13.320;2023-10-19T21:22:05;13.50;;;6.03;;
16866;SDS011;8550;52.596;13.320;2023-10-19T21:27:09;9.27;;;5.55;;
16866;SDS011;8550;52.596;13.320;2023-10-19T21:32:11;10.50;;;4.77;;
16866;SDS011;8550;52.596;13.320;2023-10-19T21:37:13;10.80;;;5.15;;
16866;SDS011;8550;52.596;13.320;2023-10-19T21:42:16;8.15;;;4.60;;
16866;SDS011;8550;52.596;13.320;2023-10-19T21:47:19;6.83;;;4.60;;
16866;SDS011;8550;52.596;13.320;2023-10-19T21:52:21;11.15;;;6.60;;
16866;SDS011;8550;52.596;13.320;2023-10-19T21:57:25;14.65;;;5.95;;
16866;SDS011;8550;52.596;13.320;2023-10-19T22:02:28;10.37;;;5.27;;
16866;SDS011;8550;52.596;13.320;2023-10-19T22:07:30;10.10;;;5.83;;
16866;SDS011;8550;52.596;13.320;2023-10-19T22:12:33;13.55;;;5.63;;
16866;SDS011;8550;52.596;13.320;2023-10-19T22:17:35;11.00;;;5.93;;
16866;SDS011;8550;52.596;13.320;2023-10-19T22:22:37;11.83;;;4.43;;
16866;SDS011;8550;52.596;13.320;2023-10-19T22:27:40;10.90;;;6.38;;
16866;SDS011;8550;52.596;13.320;2023-10-19T22:32:42;10.30;;;5.10;;
16866;SDS011;8550;52.596;13.320;2023-10-19T22:37:44;12.43;;;6.57;;
16866;SDS011;8550;52.596;13.320;2023-10-19T22:42:48;8.60;;;4.63;;
16866;SDS011;8550;52.596;13.320;2023-10-19T22:47:50;9.13;;;4.72;;
16866;SDS011;8550;52.596;13.320;2023-10-19T22:52:52;8.03;;;4.87;;
16866;SDS011;8550;52.596;13.320;2023-10-19T22:57:55;9.63;;;5.73;;
16866;SDS011;8550;52.596;13.320;2023-10-19T23:02:57;10.30;;;4.45;;
16866;SDS011;8550;52.596;13.320;2023-10-19T23:08:00;9.20;;;4.18;;
16866;SDS011;8550;52.596;13.320;2023-10-19T23:13:03;10.10;;;5.73;;
16866;SDS011;8550;52.596;13.320;2023-10-19T23:18:07;9.02;;;5.30;;
16866;SDS011;8550;52.596;13.320;2023-10-19T23:23:10;9.80;;;4.63;;
16866;SDS011;8550;52.596;13.320;2023-10-19T23:28:14;12.10;;;4.10;;
16866;SDS011;8550;52.596;13.320;2023-10-19T23:33:16;7.18;;;4.13;;
16866;SDS011;8550;52.596;13.320;2023-10-19T23:38:18;8.40;;;4.55;;
16866;SDS011;8550;52.596;13.320;2023-10-19T23:43:21;8.33;;;4.20;;
16866;SDS011;8550;52.596;13.320;2023-10-19T23:48:24;6.20;;;3.50;;
16866;SDS011;8550;52.596;13.320;2023-10-19T23:53:26;8.98;;;4.80;;
16866;SDS011;8550;52.596;13.320;2023-10-19T23:58:29;8.85;;;4.57;;
